createdAt,value
2022-10-13T00:01:10.874Z,3.40
2022-10-13T00:03:39.181Z,3.63
2022-10-13T00:06:07.449Z,3.42
2022-10-13T00:08:34.962Z,3.60
2022-10-13T00:11:02.713Z,3.70
2022-10-13T00:13:30.260Z,3.78
2022-10-13T00:15:59.025Z,3.50
2022-10-13T00:18:26.539Z,3.60
2022-10-13T00:20:54.066Z,3.70
2022-10-13T00:23:21.937Z,3.65
2022-10-13T00:25:50.430Z,3.60
2022-10-13T00:28:18.881Z,3.60
2022-10-13T00:30:46.499Z,3.78
2022-10-13T00:33:15.830Z,3.50
2022-10-13T00:35:43.421Z,3.40
2022-10-13T00:38:11.360Z,3.22
2022-10-13T00:40:44.233Z,3.40
2022-10-13T00:43:15.523Z,3.47
2022-10-13T00:45:42.933Z,3.63
2022-10-13T00:48:10.449Z,3.42
2022-10-13T00:50:42.581Z,3.60
2022-10-13T00:53:11.027Z,3.40
2022-10-13T00:55:39.538Z,3.60
2022-10-13T00:58:08.498Z,3.50
2022-10-13T01:00:36.226Z,3.25
2022-10-13T01:03:03.752Z,3.42
2022-10-13T01:05:31.338Z,3.33
2022-10-13T01:08:00.602Z,3.33
2022-10-13T01:10:34.829Z,3.60
2022-10-13T01:13:05.031Z,3.50
2022-10-13T01:15:35.287Z,3.50
2022-10-13T01:18:07.289Z,3.25
2022-10-13T01:20:52.822Z,3.20
2022-10-13T01:23:31.441Z,3.30
2022-10-13T01:26:09.896Z,3.25
2022-10-13T01:28:46.821Z,3.58
2022-10-13T01:31:19.786Z,3.17
2022-10-13T01:33:50.879Z,3.55
2022-10-13T01:36:23.282Z,3.50
2022-10-13T01:38:54.642Z,3.50
2022-10-13T01:41:28.782Z,3.40
2022-10-13T01:43:58.890Z,3.50
2022-10-13T01:46:29.801Z,3.33
2022-10-13T01:48:59.234Z,3.50
2022-10-13T01:51:27.958Z,3.60
2022-10-13T01:53:55.370Z,3.50
2022-10-13T01:56:23.309Z,3.50
2022-10-13T01:58:51.831Z,3.20
2022-10-13T02:01:26.127Z,3.40
2022-10-13T02:03:58.868Z,3.60
2022-10-13T02:06:29.519Z,3.33
2022-10-13T02:08:59.254Z,3.40
2022-10-13T02:11:28.345Z,3.38
2022-10-13T02:14:00.037Z,3.33
2022-10-13T02:16:29.593Z,3.40
2022-10-13T02:18:59.180Z,3.33
2022-10-13T02:21:27.158Z,3.60
2022-10-13T02:23:54.658Z,3.40
2022-10-13T02:26:22.862Z,3.40
2022-10-13T02:28:50.321Z,3.40
2022-10-13T02:31:17.812Z,3.42
2022-10-13T02:33:45.241Z,3.20
2022-10-13T02:36:14.236Z,3.42
2022-10-13T02:38:41.693Z,3.20
2022-10-13T02:41:09.173Z,3.60
2022-10-13T02:43:37.829Z,3.50
2022-10-13T02:46:05.355Z,3.50
2022-10-13T02:48:32.799Z,3.30
2022-10-13T02:51:00.311Z,3.60
2022-10-13T02:53:29.102Z,3.55
2022-10-13T02:55:56.545Z,3.20
2022-10-13T02:58:24.020Z,3.30
2022-10-13T03:00:51.522Z,3.22
2022-10-13T03:03:19.384Z,3.30
2022-10-13T03:05:47.105Z,3.50
2022-10-13T03:08:15.317Z,3.30
2022-10-13T03:10:44.069Z,3.47
2022-10-13T03:13:11.565Z,3.50
2022-10-13T03:15:39.007Z,3.40
2022-10-13T03:18:06.461Z,3.30
2022-10-13T03:20:33.987Z,3.47
2022-10-13T03:23:01.614Z,3.35
2022-10-13T03:25:29.200Z,3.60
2022-10-13T03:27:58.325Z,3.50
2022-10-13T03:30:26.259Z,3.10
2022-10-13T03:32:53.748Z,3.40
2022-10-13T03:35:21.146Z,3.25
2022-10-13T03:37:48.605Z,3.50
2022-10-13T03:40:16.135Z,3.50
2022-10-13T03:42:43.567Z,3.22
2022-10-13T03:45:12.916Z,3.47
2022-10-13T03:47:40.365Z,3.30
2022-10-13T03:50:08.316Z,3.40
2022-10-13T03:52:35.772Z,3.40
2022-10-13T03:55:03.237Z,3.60
2022-10-13T03:57:30.761Z,3.30
2022-10-13T03:59:58.283Z,3.50
2022-10-13T04:02:27.085Z,3.30
2022-10-13T04:04:54.588Z,3.60
2022-10-13T04:07:22.054Z,3.45
2022-10-13T04:09:49.900Z,3.63
2022-10-13T04:12:20.849Z,3.45
2022-10-13T04:14:48.743Z,3.50
2022-10-13T04:17:16.226Z,3.45
2022-10-13T04:19:45.050Z,3.60
2022-10-13T04:22:12.516Z,3.30
2022-10-13T04:24:40.094Z,3.42
2022-10-13T04:27:07.522Z,3.50
2022-10-13T04:29:34.973Z,3.60
2022-10-13T04:32:02.395Z,3.55
2022-10-13T04:34:29.811Z,3.47
2022-10-13T04:36:58.588Z,3.40
2022-10-13T04:39:26.095Z,3.35
2022-10-13T04:41:53.592Z,3.45
2022-10-13T04:44:21.126Z,3.50
2022-10-13T04:46:48.571Z,3.40
2022-10-13T04:49:16.841Z,3.50
2022-10-13T04:51:44.305Z,3.58
2022-10-13T04:54:13.120Z,3.50
2022-10-13T04:56:40.527Z,3.50
2022-10-13T04:59:08.049Z,3.60
2022-10-13T05:01:35.991Z,3.47
2022-10-13T05:04:04.549Z,3.50
2022-10-13T05:06:33.131Z,3.50
2022-10-13T05:09:00.615Z,3.45
2022-10-13T05:11:29.701Z,3.53
2022-10-13T05:13:57.660Z,3.50
2022-10-13T05:16:25.461Z,3.50
2022-10-13T05:18:54.248Z,3.20
2022-10-13T05:21:23.364Z,3.40
2022-10-13T05:23:53.861Z,3.40
2022-10-13T05:26:21.397Z,3.40
2022-10-13T05:28:50.850Z,3.20
2022-10-13T05:31:19.907Z,3.50
2022-10-13T05:33:48.379Z,3.50
2022-10-13T05:36:16.679Z,3.30
2022-10-13T05:38:44.224Z,3.45
2022-10-13T05:41:12.607Z,3.33
2022-10-13T05:43:40.338Z,3.50
2022-10-13T05:46:09.257Z,3.53
2022-10-13T05:48:36.951Z,3.60
2022-10-13T05:51:05.945Z,3.50
2022-10-13T05:53:35.203Z,3.55
2022-10-13T05:56:06.267Z,3.60
2022-10-13T05:58:34.438Z,3.60
2022-10-13T06:01:02.551Z,3.40
2022-10-13T06:03:31.323Z,3.50
2022-10-13T06:05:59.050Z,3.60
2022-10-13T06:08:27.059Z,3.60
2022-10-13T06:10:54.507Z,3.55
2022-10-13T06:13:22.037Z,3.60
2022-10-13T06:15:49.503Z,3.60
2022-10-13T06:18:16.905Z,3.50
2022-10-13T06:20:45.712Z,3.60
2022-10-13T06:23:13.148Z,3.50
2022-10-13T06:25:47.702Z,3.50
2022-10-13T06:28:15.222Z,3.67
2022-10-13T06:30:46.906Z,3.53
2022-10-13T06:33:14.510Z,3.50
2022-10-13T06:35:41.957Z,3.55
2022-10-13T06:38:10.705Z,3.60
2022-10-13T06:40:38.293Z,3.70
2022-10-13T06:43:05.800Z,3.40
2022-10-13T06:45:33.237Z,3.50
2022-10-13T06:48:00.736Z,3.60
2022-10-13T06:50:29.464Z,3.30
2022-10-13T06:52:57.321Z,3.58
2022-10-13T06:55:26.267Z,3.53
2022-10-13T06:57:53.710Z,3.72
2022-10-13T07:00:21.205Z,3.67
2022-10-13T07:02:50.514Z,3.70
2022-10-13T07:05:18.055Z,3.30
2022-10-13T07:07:45.551Z,3.50
2022-10-13T07:10:13.943Z,3.80
2022-10-13T07:12:42.718Z,3.53
2022-10-13T07:15:10.522Z,3.60
2022-10-13T07:17:38.819Z,3.40
2022-10-13T07:20:07.520Z,3.83
2022-10-13T07:22:35.145Z,4.35
2022-10-13T07:25:02.594Z,4.15
2022-10-13T07:27:30.034Z,4.05
2022-10-13T07:29:58.909Z,4.03
2022-10-13T07:32:26.718Z,4.40
2022-10-13T07:34:55.227Z,4.40
2022-10-13T07:37:23.200Z,4.40
2022-10-13T07:39:51.708Z,3.97
2022-10-13T07:42:19.165Z,4.22
2022-10-13T07:44:46.671Z,4.10
2022-10-13T07:47:15.658Z,3.50
2022-10-13T07:49:43.083Z,3.85
2022-10-13T07:52:10.609Z,3.60
2022-10-13T07:54:38.052Z,3.80
2022-10-13T07:57:05.597Z,3.80
2022-10-13T07:59:33.121Z,3.60
2022-10-13T08:02:00.771Z,3.80
2022-10-13T08:04:31.337Z,3.40
2022-10-13T08:06:59.411Z,3.40
2022-10-13T08:09:26.857Z,3.45
2022-10-13T08:11:57.647Z,3.55
2022-10-13T08:14:28.156Z,3.80
2022-10-13T08:16:55.693Z,3.50
2022-10-13T08:19:23.491Z,3.40
2022-10-13T08:21:58.351Z,3.58
2022-10-13T08:24:27.270Z,3.80
2022-10-13T08:26:54.817Z,3.45
2022-10-13T08:29:23.804Z,3.80
2022-10-13T08:31:52.480Z,3.83
2022-10-13T08:34:21.982Z,3.70
2022-10-13T08:36:52.639Z,3.90
2022-10-13T08:39:22.605Z,4.07
2022-10-13T08:41:50.305Z,3.92
2022-10-13T08:47:12.316Z,3.50
2022-10-13T08:49:41.182Z,3.90
2022-10-13T08:52:14.899Z,3.90
2022-10-13T08:54:43.704Z,3.90
2022-10-13T08:57:11.399Z,3.65
2022-10-13T08:59:39.039Z,3.70
2022-10-13T09:02:11.199Z,3.58
2022-10-13T09:04:41.572Z,3.88
2022-10-13T09:07:13.755Z,3.75
2022-10-13T09:09:41.246Z,3.58
2022-10-13T09:12:11.678Z,3.78
2022-10-13T09:14:40.002Z,3.90
2022-10-13T09:19:42.438Z,3.90
2022-10-13T09:22:17.431Z,3.55
2022-10-13T09:24:45.037Z,3.55
2022-10-13T09:27:15.805Z,3.80
2022-10-13T09:29:43.706Z,4.10
2022-10-13T09:32:16.383Z,3.60
2022-10-13T09:34:44.343Z,3.97
2022-10-13T09:37:18.864Z,4.15
2022-10-13T09:39:46.318Z,4.20
2022-10-13T09:42:23.371Z,3.83
2022-10-13T09:44:57.060Z,4.60
2022-10-13T09:47:26.629Z,4.50
2022-10-13T09:50:06.500Z,3.72
2022-10-13T09:52:35.495Z,3.90
2022-10-13T09:55:03.056Z,3.85
2022-10-13T09:57:35.907Z,3.95
2022-10-13T10:00:06.432Z,3.85
2022-10-13T10:02:35.899Z,3.85
2022-10-13T10:05:10.290Z,3.55
2022-10-13T10:07:37.704Z,3.53
2022-10-13T10:10:10.219Z,3.90
2022-10-13T10:12:41.919Z,3.80
2022-10-13T10:15:17.648Z,3.75
2022-10-13T10:17:49.553Z,3.95
2022-10-13T10:20:24.350Z,3.67
2022-10-13T10:22:56.322Z,3.90
2022-10-13T10:25:28.101Z,3.95
2022-10-13T10:28:04.830Z,3.50
2022-10-13T10:30:32.442Z,3.75
2022-10-13T10:33:03.843Z,3.90
2022-10-13T10:35:39.171Z,3.70
2022-10-13T10:38:13.363Z,3.70
2022-10-13T10:40:49.898Z,3.80
2022-10-13T10:43:38.652Z,3.90
2022-10-13T10:46:12.929Z,3.70
2022-10-13T10:48:40.650Z,3.60
2022-10-13T10:51:08.694Z,3.88
2022-10-13T10:53:39.513Z,3.75
2022-10-13T10:56:10.617Z,3.70
2022-10-13T10:58:43.115Z,4.18
2022-10-13T11:01:23.108Z,3.78
2022-10-13T11:03:55.253Z,3.88
2022-10-13T11:06:24.258Z,3.55
2022-10-13T11:08:51.819Z,3.58
2022-10-13T11:11:43.875Z,3.80
2022-10-13T11:14:26.304Z,4.15
2022-10-13T11:17:11.764Z,3.80
2022-10-13T11:19:42.026Z,4.00
2022-10-13T11:22:20.830Z,3.63
2022-10-13T11:24:50.627Z,3.70
2022-10-13T11:27:25.782Z,4.57
2022-10-13T11:29:55.604Z,3.72
2022-10-13T11:32:55.442Z,3.75
2022-10-13T11:35:26.235Z,3.70
2022-10-13T11:38:13.910Z,3.80
2022-10-13T11:40:46.832Z,3.80
2022-10-13T11:43:23.231Z,3.97
2022-10-13T11:46:11.465Z,3.65
2022-10-13T11:48:57.445Z,4.00
2022-10-13T11:51:32.137Z,3.70
2022-10-13T11:54:05.298Z,3.80
2022-10-13T11:56:37.125Z,3.50
2022-10-13T11:59:06.748Z,3.90
2022-10-13T12:01:34.371Z,3.88
2022-10-13T12:04:13.492Z,3.80
2022-10-13T12:06:42.361Z,3.88
2022-10-13T12:09:17.633Z,3.85
2022-10-13T12:11:45.664Z,3.90
2022-10-13T12:14:22.054Z,3.60
2022-10-13T12:19:29.977Z,3.88
2022-10-13T12:22:00.054Z,3.65
2022-10-13T12:24:28.554Z,3.90
2022-10-13T12:26:56.555Z,3.90
2022-10-13T12:29:26.014Z,3.67
2022-10-13T12:31:53.800Z,4.00
2022-10-13T12:34:22.714Z,3.70
2022-10-13T12:36:54.422Z,3.60
2022-10-13T12:39:25.180Z,3.80
2022-10-13T12:41:53.168Z,3.50
2022-10-13T12:44:22.866Z,3.58
2022-10-13T12:46:52.260Z,3.50
2022-10-13T12:49:22.075Z,3.50
2022-10-13T12:51:50.820Z,3.58
2022-10-13T12:54:27.830Z,3.75
2022-10-13T12:56:57.835Z,4.00
2022-10-13T12:59:26.847Z,3.90
2022-10-13T13:01:55.359Z,4.00
2022-10-13T13:04:30.784Z,4.05
2022-10-13T13:06:59.034Z,4.00
2022-10-13T13:09:28.972Z,4.00
2022-10-13T13:12:20.870Z,3.90
2022-10-13T13:14:49.431Z,3.80
2022-10-13T13:20:20.037Z,3.70
2022-10-13T13:22:47.586Z,4.00
2022-10-13T13:25:17.306Z,3.80
2022-10-13T13:27:44.750Z,3.85
2022-10-13T13:30:13.075Z,3.70
2022-10-13T13:32:40.653Z,3.70
2022-10-13T13:35:08.426Z,3.55
2022-10-13T13:37:37.978Z,3.85
2022-10-13T13:40:08.967Z,3.92
2022-10-13T13:42:37.743Z,3.90
2022-10-13T13:45:08.018Z,3.83
2022-10-13T13:47:35.442Z,4.00
2022-10-13T13:50:02.926Z,3.85
2022-10-13T13:52:30.710Z,3.90
2022-10-13T13:54:58.121Z,3.80
2022-10-13T13:57:25.603Z,3.63
2022-10-13T13:59:54.365Z,3.50
2022-10-13T14:02:22.294Z,4.10
2022-10-13T14:04:50.074Z,3.65
2022-10-13T14:07:18.163Z,3.70
2022-10-13T14:09:45.882Z,3.60
2022-10-13T14:12:13.399Z,3.90
2022-10-13T14:14:40.841Z,3.58
2022-10-13T14:17:09.609Z,3.58
2022-10-13T14:19:37.067Z,3.72
2022-10-13T14:22:09.211Z,3.55
2022-10-13T14:24:37.127Z,3.70
2022-10-13T14:27:04.689Z,3.75
2022-10-13T14:29:32.123Z,3.60
2022-10-13T14:31:59.634Z,3.70
2022-10-13T14:34:28.704Z,3.60
2022-10-13T14:36:56.139Z,3.75
2022-10-13T14:39:23.611Z,3.72
2022-10-13T14:41:51.397Z,3.80
2022-10-13T14:44:18.852Z,3.35
2022-10-13T14:46:46.272Z,3.40
2022-10-13T14:49:13.809Z,3.30
2022-10-13T14:51:42.886Z,3.50
2022-10-13T14:54:10.792Z,3.50
2022-10-13T14:56:38.592Z,3.30
2022-10-13T14:59:07.185Z,3.40
2022-10-13T15:01:35.084Z,3.40
2022-10-13T15:04:02.624Z,3.47
2022-10-13T15:06:30.645Z,3.15
2022-10-13T15:08:59.497Z,3.25
2022-10-13T15:11:28.402Z,3.40
2022-10-13T15:13:56.444Z,3.30
2022-10-13T15:16:24.618Z,3.20
2022-10-13T15:18:52.267Z,3.25
2022-10-13T15:21:19.992Z,3.40
2022-10-13T15:23:47.800Z,3.40
2022-10-13T15:26:17.400Z,3.30
2022-10-13T15:28:45.573Z,3.15
2022-10-13T15:31:13.756Z,3.17
2022-10-13T15:33:43.333Z,3.20
2022-10-13T15:36:10.756Z,3.20
2022-10-13T15:38:38.211Z,3.00
2022-10-13T15:41:06.576Z,3.30
2022-10-13T15:43:35.581Z,3.35
2022-10-13T15:46:04.873Z,3.17
2022-10-13T15:48:32.904Z,3.60
2022-10-13T15:51:00.614Z,3.35
2022-10-13T15:53:28.164Z,3.50
2022-10-13T15:55:55.662Z,3.30
2022-10-13T15:58:23.777Z,3.60
2022-10-13T16:00:52.659Z,4.55
2022-10-13T16:03:20.125Z,4.90
2022-10-13T16:05:48.014Z,4.10
2022-10-13T16:08:15.646Z,4.45
2022-10-13T16:10:43.960Z,4.53
2022-10-13T16:13:14.225Z,4.57
2022-10-13T16:15:41.923Z,4.80
2022-10-13T16:18:10.689Z,4.80
2022-10-13T16:20:40.699Z,4.85
2022-10-13T16:23:08.292Z,4.40
2022-10-13T16:25:39.439Z,4.10
2022-10-13T16:28:07.003Z,4.40
2022-10-13T16:30:36.577Z,4.50
2022-10-13T16:33:04.023Z,4.43
2022-10-13T16:35:34.730Z,4.40
2022-10-13T16:38:02.162Z,4.00
2022-10-13T16:40:29.655Z,4.32
2022-10-13T16:42:57.190Z,4.30
2022-10-13T16:45:41.240Z,3.97
2022-10-13T16:48:13.247Z,3.92
2022-10-13T16:50:42.072Z,4.18
2022-10-13T16:53:11.064Z,3.97
2022-10-13T16:55:40.962Z,3.90
2022-10-13T16:58:08.681Z,4.10
2022-10-13T17:00:36.504Z,3.78
2022-10-13T17:03:04.282Z,3.58
2022-10-13T17:05:32.894Z,3.75
2022-10-13T17:08:01.680Z,3.67
2022-10-13T17:10:31.665Z,3.70
2022-10-13T17:12:59.362Z,3.70
2022-10-13T17:15:26.879Z,3.70
2022-10-13T17:17:54.379Z,3.63
2022-10-13T17:20:28.680Z,3.63
2022-10-13T17:22:56.137Z,3.67
2022-10-13T17:25:24.942Z,3.63
2022-10-13T17:27:52.495Z,3.70
2022-10-13T17:30:19.952Z,3.70
2022-10-13T17:32:47.401Z,3.80
2022-10-13T17:35:18.919Z,3.33
2022-10-13T17:37:46.362Z,3.67
2022-10-13T17:40:13.842Z,3.80
2022-10-13T17:42:43.134Z,3.78
2022-10-13T17:45:10.773Z,3.60
2022-10-13T17:47:41.362Z,3.80
2022-10-13T17:50:09.130Z,3.60
2022-10-13T17:52:36.965Z,3.60
2022-10-13T17:55:12.517Z,3.90
2022-10-13T17:57:39.954Z,3.72
2022-10-13T18:00:09.768Z,3.80
2022-10-13T18:02:37.314Z,3.60
2022-10-13T18:05:04.942Z,3.70
2022-10-13T18:07:32.368Z,3.50
2022-10-13T18:10:00.398Z,3.50
2022-10-13T18:12:28.424Z,3.55
2022-10-13T18:14:57.239Z,3.47
2022-10-13T18:17:26.474Z,3.70
2022-10-13T18:19:54.235Z,3.60
2022-10-13T18:22:22.239Z,3.50
2022-10-13T18:24:54.575Z,3.50
2022-10-13T18:27:24.360Z,3.70
2022-10-13T18:29:51.828Z,3.70
2022-10-13T18:32:20.200Z,3.80
2022-10-13T18:34:48.983Z,3.75
2022-10-13T18:37:16.420Z,3.60
2022-10-13T18:39:44.481Z,3.80
2022-10-13T18:42:11.955Z,3.70
2022-10-13T18:44:39.413Z,3.95
2022-10-13T18:47:07.284Z,3.78
2022-10-13T18:49:36.454Z,3.40
2022-10-13T18:52:06.056Z,3.80
2022-10-13T18:54:33.780Z,3.90
2022-10-13T18:57:01.353Z,3.80
2022-10-13T18:59:28.816Z,3.80
2022-10-13T19:01:56.437Z,3.70
2022-10-13T19:04:24.125Z,3.88
2022-10-13T19:06:51.586Z,3.78
2022-10-13T19:09:22.300Z,3.88
2022-10-13T19:11:50.288Z,3.90
2022-10-13T19:14:19.107Z,3.60
2022-10-13T19:16:46.827Z,3.83
2022-10-13T19:19:14.573Z,3.85
2022-10-13T19:21:42.490Z,3.80
2022-10-13T19:24:10.827Z,3.70
2022-10-13T19:26:39.735Z,3.97
2022-10-13T19:29:08.458Z,3.80
2022-10-13T19:31:36.201Z,3.80
2022-10-13T19:34:03.788Z,3.60
2022-10-13T19:36:32.307Z,3.50
2022-10-13T19:38:59.759Z,3.80
2022-10-13T19:41:28.331Z,3.50
2022-10-13T19:43:57.140Z,3.83
2022-10-13T19:46:24.569Z,3.58
2022-10-13T19:48:52.420Z,3.60
2022-10-13T19:51:19.922Z,3.50
2022-10-13T19:53:47.489Z,3.40
2022-10-13T19:56:23.234Z,3.80
2022-10-13T19:58:51.846Z,3.40
2022-10-13T20:01:20.871Z,3.80
2022-10-13T20:03:48.717Z,3.60
2022-10-13T20:06:16.501Z,3.42
2022-10-13T20:08:47.463Z,3.58
2022-10-13T20:11:22.244Z,3.70
2022-10-13T20:13:51.072Z,3.60
2022-10-13T20:16:21.573Z,3.58
2022-10-13T20:18:51.951Z,3.55
2022-10-13T20:21:19.887Z,3.42
2022-10-13T20:23:47.402Z,3.67
2022-10-13T20:26:14.873Z,3.70
2022-10-13T20:28:43.292Z,3.60
2022-10-13T20:31:11.449Z,3.60
2022-10-13T20:33:40.461Z,3.60
2022-10-13T20:36:09.882Z,3.58
2022-10-13T20:38:37.613Z,3.55
2022-10-13T20:41:06.202Z,3.65
2022-10-13T20:43:33.938Z,3.70
2022-10-13T20:46:02.064Z,3.50
2022-10-13T20:48:45.562Z,3.28
2022-10-13T20:51:21.601Z,3.58
2022-10-13T20:53:49.474Z,3.55
2022-10-13T20:56:18.274Z,3.20
2022-10-13T20:58:45.927Z,3.50
2022-10-13T21:01:13.851Z,3.30
2022-10-13T21:03:41.410Z,3.40
2022-10-13T21:06:10.491Z,3.40
2022-10-13T21:08:39.574Z,3.38
2022-10-13T21:11:07.983Z,3.63
2022-10-13T21:13:36.001Z,3.20
2022-10-13T21:16:07.298Z,3.40
2022-10-13T21:18:35.266Z,3.43
2022-10-13T21:21:06.674Z,3.60
2022-10-13T21:23:34.605Z,3.80
2022-10-13T21:26:03.829Z,3.60
2022-10-13T21:28:31.685Z,3.50
2022-10-13T21:31:02.755Z,3.58
2022-10-13T21:33:30.315Z,3.45
2022-10-13T21:35:58.207Z,3.40
2022-10-13T21:38:25.943Z,3.60
2022-10-13T21:40:54.125Z,3.50
2022-10-13T21:43:23.156Z,3.70
2022-10-13T21:45:53.821Z,3.30
2022-10-13T21:48:21.309Z,3.50
2022-10-13T21:50:48.850Z,3.60
2022-10-13T21:53:16.495Z,3.50
2022-10-13T21:55:43.938Z,3.40
2022-10-13T21:58:12.153Z,3.75
2022-10-13T22:00:41.045Z,3.40
2022-10-13T22:03:08.476Z,3.70
2022-10-13T22:05:36.084Z,3.22
2022-10-13T22:08:03.511Z,3.20
2022-10-13T22:10:30.934Z,3.80
2022-10-13T22:12:58.459Z,3.78
2022-10-13T22:15:25.941Z,3.45
2022-10-13T22:17:54.733Z,3.80
2022-10-13T22:20:22.247Z,3.60
2022-10-13T22:22:49.687Z,3.40
2022-10-13T22:25:17.187Z,3.60
2022-10-13T22:27:44.617Z,3.58
2022-10-13T22:30:12.397Z,3.72
2022-10-13T22:32:39.811Z,3.58
2022-10-13T22:35:09.216Z,3.60
2022-10-13T22:37:36.859Z,3.60
2022-10-13T22:40:04.419Z,3.40
2022-10-13T22:42:31.893Z,3.80
2022-10-13T22:44:59.335Z,3.63
2022-10-13T22:47:26.832Z,3.30
2022-10-13T22:49:54.265Z,3.55
2022-10-13T22:52:23.042Z,3.70
2022-10-13T22:54:50.465Z,3.40
2022-10-13T22:57:18.053Z,3.60
2022-10-13T22:59:45.722Z,3.60
2022-10-13T23:02:13.205Z,3.50
2022-10-13T23:04:40.654Z,3.60
2022-10-13T23:07:08.083Z,3.60
2022-10-13T23:09:36.868Z,3.90
2022-10-13T23:12:04.831Z,3.53
2022-10-13T23:14:32.258Z,3.70
2022-10-13T23:16:59.670Z,3.90
2022-10-13T23:19:27.107Z,3.85
2022-10-13T23:21:54.562Z,3.67
2022-10-13T23:24:22.030Z,3.33
2022-10-13T23:26:50.825Z,3.55
2022-10-13T23:29:18.241Z,3.80
2022-10-13T23:31:45.690Z,3.60
2022-10-13T23:34:13.117Z,3.50
2022-10-13T23:36:40.549Z,3.50
2022-10-13T23:39:08.166Z,3.55
2022-10-13T23:41:35.611Z,3.80
2022-10-13T23:44:04.382Z,3.70
2022-10-13T23:46:31.915Z,3.47
2022-10-13T23:48:59.328Z,3.40
2022-10-13T23:51:27.101Z,3.58
2022-10-13T23:53:54.550Z,3.60
2022-10-13T23:56:22.085Z,3.30
2022-10-13T23:58:49.979Z,3.28
